createdAt,value
2017-10-03T00:00:14.473Z,1011.4
2017-10-03T00:01:16.036Z,1011.4
2017-10-03T00:02:17.646Z,1011.4
2017-10-03T00:03:19.246Z,1011.4
2017-10-03T00:04:20.794Z,1011.4
2017-10-03T00:05:22.435Z,1011.3
2017-10-03T00:06:24.022Z,1011.3
2017-10-03T00:07:25.689Z,1011.3
2017-10-03T00:08:27.324Z,1011.2
2017-10-03T00:09:28.914Z,1011.2
2017-10-03T00:10:30.489Z,1011.2
2017-10-03T00:11:32.046Z,1011.2
2017-10-03T00:12:33.656Z,1011.1
2017-10-03T00:13:35.169Z,1011.1
2017-10-03T00:14:36.782Z,1011.1
2017-10-03T00:15:38.375Z,1011.2
2017-10-03T00:16:40.029Z,1011.2
2017-10-03T00:17:41.661Z,1011.2
2017-10-03T00:18:43.237Z,1011.2
2017-10-03T00:19:44.771Z,1011.2
2017-10-03T00:20:46.355Z,1011.2
2017-10-03T00:21:48.000Z,1011.2
2017-10-03T00:22:49.580Z,1011.2
2017-10-03T00:23:51.081Z,1011.2
2017-10-03T00:24:52.712Z,1011.2
2017-10-03T00:25:54.313Z,1011.2
2017-10-03T00:26:55.927Z,1011.2
2017-10-03T00:27:57.568Z,1011.2
2017-10-03T00:28:59.143Z,1011.3
2017-10-03T00:30:00.791Z,1011.2
2017-10-03T00:31:02.382Z,1011.2
2017-10-03T00:32:03.954Z,1011.3
2017-10-03T00:33:05.536Z,1011.3
2017-10-03T00:34:07.093Z,1011.2
2017-10-03T00:35:08.687Z,1011.2
2017-10-03T00:36:10.321Z,1011.2
2017-10-03T00:37:11.919Z,1011.2
2017-10-03T00:38:13.492Z,1011.2
2017-10-03T00:39:15.044Z,1011.3
2017-10-03T00:40:16.675Z,1011.3
2017-10-03T00:41:18.245Z,1011.3
2017-10-03T00:42:19.844Z,1011.3
2017-10-03T00:43:21.458Z,1011.3
2017-10-03T00:44:23.011Z,1011.3
2017-10-03T00:45:24.619Z,1011.3
2017-10-03T00:46:26.200Z,1011.3
2017-10-03T00:47:27.799Z,1011.4
2017-10-03T00:48:29.397Z,1011.4
2017-10-03T00:49:30.992Z,1011.4
2017-10-03T00:50:32.614Z,1011.4
2017-10-03T00:51:34.197Z,1011.4
2017-10-03T00:52:35.736Z,1011.5
2017-10-03T00:53:37.320Z,1011.5
2017-10-03T00:54:38.918Z,1011.5
2017-10-03T00:55:40.477Z,1011.5
2017-10-03T00:56:42.069Z,1011.5
2017-10-03T00:57:43.620Z,1011.5
2017-10-03T00:58:45.178Z,1011.5
2017-10-03T00:59:46.814Z,1011.5
2017-10-03T01:00:48.395Z,1011.5
2017-10-03T01:01:50.045Z,1011.5
2017-10-03T01:02:51.608Z,1011.6
2017-10-03T01:03:53.261Z,1011.6
2017-10-03T01:04:54.835Z,1011.6
2017-10-03T01:05:56.458Z,1011.5
2017-10-03T01:06:58.111Z,1011.5
2017-10-03T01:07:59.689Z,1011.4
2017-10-03T01:09:01.257Z,1011.4
2017-10-03T01:10:02.825Z,1011.4
2017-10-03T01:11:04.427Z,1011.4
2017-10-03T01:12:05.994Z,1011.4
2017-10-03T01:13:07.552Z,1011.4
2017-10-03T01:14:09.145Z,1011.4
2017-10-03T01:15:10.883Z,1011.3
2017-10-03T01:16:12.490Z,1011.4
2017-10-03T01:17:14.126Z,1011.4
2017-10-03T01:18:15.700Z,1011.4
2017-10-03T01:19:17.299Z,1011.3
2017-10-03T01:20:18.899Z,1011.3
2017-10-03T01:21:20.473Z,1011.3
2017-10-03T01:22:22.078Z,1011.3
2017-10-03T01:23:23.630Z,1011.2
2017-10-03T01:24:25.198Z,1011.3
2017-10-03T01:25:26.817Z,1011.3
2017-10-03T01:26:28.397Z,1011.2
2017-10-03T01:27:30.032Z,1011.3
2017-10-03T01:28:31.606Z,1011.3
2017-10-03T01:29:33.209Z,1011.2
2017-10-03T01:30:34.800Z,1011.3
2017-10-03T01:31:36.344Z,1011.3
2017-10-03T01:32:37.888Z,1011.4
2017-10-03T01:33:39.433Z,1011.4
2017-10-03T01:34:41.014Z,1011.4
2017-10-03T01:35:42.555Z,1011.4
2017-10-03T01:36:44.123Z,1011.3
2017-10-03T01:37:45.735Z,1011.3
2017-10-03T01:38:47.301Z,1011.3
2017-10-03T01:39:48.836Z,1011.3
2017-10-03T01:40:50.374Z,1011.2
2017-10-03T01:41:51.912Z,1011.2
2017-10-03T01:42:53.443Z,1011.2
2017-10-03T01:43:55.007Z,1011.2
2017-10-03T01:44:56.572Z,1011.2
2017-10-03T01:45:58.202Z,1011.2
2017-10-03T01:46:59.843Z,1011.2
2017-10-03T01:48:01.403Z,1011.2
2017-10-03T01:49:02.980Z,1011.3
2017-10-03T01:50:04.536Z,1011.3
2017-10-03T01:51:06.136Z,1011.3
2017-10-03T01:52:07.785Z,1011.3
2017-10-03T01:53:09.300Z,1011.4
2017-10-03T01:54:10.806Z,1011.3
2017-10-03T01:55:12.384Z,1011.3
2017-10-03T01:56:13.985Z,1011.3
2017-10-03T01:57:15.607Z,1011.3
2017-10-03T01:58:17.156Z,1011.3
2017-10-03T01:59:18.712Z,1011.3
2017-10-03T02:00:20.284Z,1011.3
2017-10-03T02:01:21.843Z,1011.3
2017-10-03T02:02:23.424Z,1011.3
2017-10-03T02:03:24.986Z,1011.3
2017-10-03T02:04:26.579Z,1011.3
2017-10-03T02:05:28.137Z,1011.4
2017-10-03T02:06:29.770Z,1011.4
2017-10-03T02:07:31.323Z,1011.4
2017-10-03T02:08:32.902Z,1011.5
2017-10-03T02:09:34.479Z,1011.5
2017-10-03T02:10:36.008Z,1011.5
2017-10-03T02:11:37.585Z,1011.5
2017-10-03T02:12:39.151Z,1011.5
2017-10-03T02:13:40.776Z,1011.5
2017-10-03T02:14:42.331Z,1011.5
2017-10-03T02:15:43.906Z,1011.5
2017-10-03T02:16:45.513Z,1011.5
2017-10-03T02:17:47.084Z,1011.4
2017-10-03T02:18:48.671Z,1011.4
2017-10-03T02:19:50.327Z,1011.5
2017-10-03T02:20:51.892Z,1011.4
2017-10-03T02:21:53.445Z,1011.4
2017-10-03T02:22:55.067Z,1011.4
2017-10-03T02:23:56.657Z,1011.4
2017-10-03T02:24:58.222Z,1011.4
2017-10-03T02:25:59.783Z,1011.4
2017-10-03T02:27:01.382Z,1011.4
2017-10-03T02:28:03.016Z,1011.4
2017-10-03T02:29:04.611Z,1011.4
2017-10-03T02:30:06.180Z,1011.5
2017-10-03T02:31:07.800Z,1011.5
2017-10-03T02:32:09.383Z,1011.4
2017-10-03T02:33:10.958Z,1011.4
2017-10-03T02:34:12.630Z,1011.4
2017-10-03T02:35:14.202Z,1011.4
2017-10-03T02:36:15.807Z,1011.4
2017-10-03T02:37:17.382Z,1011.4
2017-10-03T02:38:18.936Z,1011.4
2017-10-03T02:39:20.508Z,1011.5
2017-10-03T02:40:22.078Z,1011.4
2017-10-03T02:41:23.655Z,1011.4
2017-10-03T02:42:25.212Z,1011.4
2017-10-03T02:43:26.764Z,1011.5
2017-10-03T02:44:28.401Z,1011.4
2017-10-03T02:45:29.986Z,1011.5
2017-10-03T02:46:31.542Z,1011.5
2017-10-03T02:47:33.075Z,1011.5
2017-10-03T02:48:34.624Z,1011.5
2017-10-03T02:49:36.152Z,1011.5
2017-10-03T02:50:37.718Z,1011.5
2017-10-03T02:51:39.343Z,1011.5
2017-10-03T02:52:40.859Z,1011.5
2017-10-03T02:53:42.414Z,1011.5
2017-10-03T02:54:43.967Z,1011.5
2017-10-03T02:55:45.528Z,1011.6
2017-10-03T02:56:47.069Z,1011.6
2017-10-03T02:57:48.662Z,1011.6
2017-10-03T02:58:50.244Z,1011.6
2017-10-03T02:59:51.789Z,1011.6
2017-10-03T03:00:53.353Z,1011.6
2017-10-03T03:01:54.961Z,1011.6
2017-10-03T03:02:56.540Z,1011.6
2017-10-03T03:03:58.099Z,1011.6
2017-10-03T03:04:59.701Z,1011.7
2017-10-03T03:06:01.350Z,1011.7
2017-10-03T03:07:02.916Z,1011.7
2017-10-03T03:08:04.489Z,1011.7
2017-10-03T03:09:06.163Z,1011.6
2017-10-03T03:10:07.773Z,1011.7
2017-10-03T03:11:09.366Z,1011.6
2017-10-03T03:12:10.962Z,1011.7
2017-10-03T03:13:12.537Z,1011.7
2017-10-03T03:14:14.091Z,1011.7
2017-10-03T03:15:15.733Z,1011.8
2017-10-03T03:16:17.308Z,1011.7
2017-10-03T03:17:18.868Z,1011.7
2017-10-03T03:18:20.407Z,1011.7
2017-10-03T03:19:21.992Z,1011.8
2017-10-03T03:20:23.553Z,1011.8
2017-10-03T03:21:25.148Z,1011.8
2017-10-03T03:22:26.671Z,1011.8
2017-10-03T03:23:28.240Z,1011.8
2017-10-03T03:24:29.781Z,1011.8
2017-10-03T03:25:31.361Z,1011.8
2017-10-03T03:26:32.902Z,1011.9
2017-10-03T03:27:34.465Z,1011.8
2017-10-03T03:28:35.993Z,1011.8
2017-10-03T03:29:37.609Z,1011.9
2017-10-03T03:30:39.198Z,1011.9
2017-10-03T03:31:40.778Z,1011.9
2017-10-03T03:32:42.324Z,1011.8
2017-10-03T03:33:43.911Z,1011.9
2017-10-03T03:34:45.549Z,1011.8
2017-10-03T03:35:47.151Z,1011.8
2017-10-03T03:36:48.714Z,1011.8
2017-10-03T03:37:50.236Z,1011.8
2017-10-03T03:38:51.826Z,1011.8
2017-10-03T03:39:53.418Z,1011.8
2017-10-03T03:40:54.974Z,1011.8
2017-10-03T03:41:56.543Z,1011.8
2017-10-03T03:42:58.060Z,1011.8
2017-10-03T03:43:59.664Z,1011.9
2017-10-03T03:45:01.207Z,1011.8
2017-10-03T03:46:02.804Z,1011.8
2017-10-03T03:47:04.374Z,1011.8
2017-10-03T03:48:05.990Z,1011.8
2017-10-03T03:49:07.567Z,1011.8
2017-10-03T03:50:09.157Z,1011.8
2017-10-03T03:51:10.734Z,1011.8
2017-10-03T03:52:12.300Z,1011.8
2017-10-03T03:53:13.882Z,1011.8
2017-10-03T03:54:15.428Z,1011.8
2017-10-03T03:55:17.025Z,1011.8
2017-10-03T03:56:18.644Z,1011.8
2017-10-03T03:57:20.250Z,1011.8
2017-10-03T03:58:21.785Z,1011.8
2017-10-03T03:59:23.384Z,1011.9
2017-10-03T04:00:24.970Z,1011.9
2017-10-03T04:01:26.563Z,1011.9
2017-10-03T04:02:28.176Z,1011.9
2017-10-03T04:03:29.698Z,1011.9
2017-10-03T04:04:31.269Z,1011.9
2017-10-03T04:05:32.852Z,1012.0
2017-10-03T04:06:34.466Z,1012.0
2017-10-03T04:07:36.049Z,1011.9
2017-10-03T04:08:37.617Z,1012.0
2017-10-03T04:09:39.186Z,1011.9
2017-10-03T04:10:40.802Z,1012.0
2017-10-03T04:11:42.403Z,1012.0
2017-10-03T04:12:43.954Z,1012.0
2017-10-03T04:13:45.581Z,1012.0
2017-10-03T04:14:47.168Z,1012.0
2017-10-03T04:15:48.743Z,1012.1
2017-10-03T04:16:50.273Z,1012.1
2017-10-03T04:17:51.874Z,1012.1
2017-10-03T04:18:53.427Z,1012.1
2017-10-03T04:19:55.011Z,1012.1
2017-10-03T04:20:56.600Z,1012.1
2017-10-03T04:21:58.255Z,1012.1
2017-10-03T04:22:59.793Z,1012.1
2017-10-03T04:24:01.427Z,1012.1
2017-10-03T04:25:02.966Z,1012.2
2017-10-03T04:26:04.566Z,1012.2
2017-10-03T04:27:06.250Z,1012.1
2017-10-03T04:28:07.808Z,1012.2
2017-10-03T04:29:09.400Z,1012.1
2017-10-03T04:30:10.932Z,1012.1
2017-10-03T04:31:12.569Z,1012.2
2017-10-03T04:32:14.155Z,1012.1
2017-10-03T04:33:15.714Z,1012.1
2017-10-03T04:34:17.330Z,1012.2
2017-10-03T04:35:18.886Z,1012.2
2017-10-03T04:36:20.469Z,1012.2
2017-10-03T04:37:22.038Z,1012.2
2017-10-03T04:38:23.620Z,1012.2
2017-10-03T04:39:25.167Z,1012.2
2017-10-03T04:40:26.762Z,1012.2
2017-10-03T04:41:28.367Z,1012.2
2017-10-03T04:42:29.955Z,1012.3
2017-10-03T04:43:31.516Z,1012.3
2017-10-03T04:44:33.103Z,1012.4
2017-10-03T04:45:34.707Z,1012.4
2017-10-03T04:46:36.298Z,1012.4
2017-10-03T04:47:37.924Z,1012.4
2017-10-03T04:48:39.438Z,1012.4
2017-10-03T04:49:41.071Z,1012.4
2017-10-03T04:50:42.632Z,1012.5
2017-10-03T04:51:44.234Z,1012.4
2017-10-03T04:52:45.841Z,1012.5
2017-10-03T04:53:47.431Z,1012.5
2017-10-03T04:54:49.011Z,1012.4
2017-10-03T04:55:50.569Z,1012.5
2017-10-03T04:56:52.127Z,1012.5
2017-10-03T04:57:53.697Z,1012.5
2017-10-03T04:58:55.224Z,1012.4
2017-10-03T04:59:56.807Z,1012.5
2017-10-03T05:00:58.385Z,1012.5
2017-10-03T05:01:59.987Z,1012.5
2017-10-03T05:03:01.516Z,1012.5
2017-10-03T05:04:03.061Z,1012.5
2017-10-03T05:05:04.669Z,1012.5
2017-10-03T05:06:06.286Z,1012.6
2017-10-03T05:07:07.924Z,1012.5
2017-10-03T05:08:09.529Z,1012.6
2017-10-03T05:09:11.126Z,1012.5
2017-10-03T05:10:12.768Z,1012.5
2017-10-03T05:11:14.337Z,1012.6
2017-10-03T05:12:15.899Z,1012.7
2017-10-03T05:13:17.468Z,1012.6
2017-10-03T05:14:18.973Z,1012.6
2017-10-03T05:15:20.569Z,1012.7
2017-10-03T05:16:22.157Z,1012.7
2017-10-03T05:17:23.757Z,1012.7
2017-10-03T05:18:25.369Z,1012.7
2017-10-03T05:19:26.982Z,1012.7
2017-10-03T05:20:28.580Z,1012.7
2017-10-03T05:21:30.178Z,1012.8
2017-10-03T05:22:31.729Z,1012.8
2017-10-03T05:23:33.335Z,1012.8
2017-10-03T05:24:34.897Z,1012.8
2017-10-03T05:25:36.440Z,1012.8
2017-10-03T05:26:38.024Z,1012.8
2017-10-03T05:27:39.579Z,1012.8
2017-10-03T05:28:41.162Z,1012.8
2017-10-03T05:29:42.729Z,1012.8
2017-10-03T05:30:44.325Z,1012.9
2017-10-03T05:31:45.921Z,1012.9
2017-10-03T05:32:47.506Z,1012.9
2017-10-03T05:33:49.038Z,1012.9
2017-10-03T05:34:50.620Z,1012.9
2017-10-03T05:35:52.205Z,1012.9
2017-10-03T05:36:53.772Z,1012.9
2017-10-03T05:37:55.357Z,1012.9
2017-10-03T05:38:56.926Z,1012.9
2017-10-03T05:39:58.478Z,1012.9
2017-10-03T05:41:00.039Z,1012.9
2017-10-03T05:42:01.647Z,1013.0
2017-10-03T05:43:03.259Z,1012.9
2017-10-03T05:44:04.868Z,1013.0
2017-10-03T05:45:06.492Z,1013.0
2017-10-03T05:46:07.995Z,1013.0
2017-10-03T05:47:09.573Z,1013.0
2017-10-03T05:48:11.114Z,1013.0
2017-10-03T05:49:12.617Z,1013.1
2017-10-03T05:50:14.164Z,1013.1
2017-10-03T05:51:15.696Z,1013.1
2017-10-03T05:52:17.253Z,1013.1
2017-10-03T05:53:18.815Z,1013.1
2017-10-03T05:54:20.369Z,1013.2
2017-10-03T05:55:21.958Z,1013.2
2017-10-03T05:56:23.559Z,1013.2
2017-10-03T05:57:25.180Z,1013.3
2017-10-03T05:58:26.798Z,1013.3
2017-10-03T05:59:28.419Z,1013.3
2017-10-03T06:00:30.033Z,1013.3
2017-10-03T06:01:31.617Z,1013.3
2017-10-03T06:02:33.189Z,1013.4
2017-10-03T06:03:34.760Z,1013.4
2017-10-03T06:04:36.314Z,1013.4
2017-10-03T06:05:37.882Z,1013.4
2017-10-03T06:06:39.518Z,1013.4
2017-10-03T06:07:41.067Z,1013.4
2017-10-03T06:08:42.673Z,1013.4
2017-10-03T06:09:44.221Z,1013.5
2017-10-03T06:10:45.815Z,1013.4
2017-10-03T06:11:47.357Z,1013.4
2017-10-03T06:12:48.964Z,1013.4
2017-10-03T06:13:50.609Z,1013.5
2017-10-03T06:14:52.191Z,1013.5
2017-10-03T06:15:53.783Z,1013.5
2017-10-03T06:16:55.376Z,1013.5
2017-10-03T06:17:56.988Z,1013.5
2017-10-03T06:18:58.598Z,1013.5
2017-10-03T06:20:00.149Z,1013.6
2017-10-03T06:21:01.773Z,1013.5
2017-10-03T06:22:03.430Z,1013.5
2017-10-03T06:23:05.003Z,1013.6
2017-10-03T06:24:06.566Z,1013.6
2017-10-03T06:25:08.167Z,1013.7
2017-10-03T06:26:09.746Z,1013.7
2017-10-03T06:27:11.320Z,1013.7
2017-10-03T06:28:12.889Z,1013.7
2017-10-03T06:29:14.486Z,1013.7
2017-10-03T06:30:16.111Z,1013.7
2017-10-03T06:31:17.687Z,1013.7
2017-10-03T06:32:19.270Z,1013.8
2017-10-03T06:33:20.867Z,1013.8
2017-10-03T06:34:22.394Z,1013.8
2017-10-03T06:35:23.998Z,1013.9
2017-10-03T06:36:25.558Z,1013.9
2017-10-03T06:37:27.116Z,1013.9
2017-10-03T06:38:28.681Z,1013.9
2017-10-03T06:39:30.253Z,1013.9
2017-10-03T06:40:31.871Z,1013.9
2017-10-03T06:41:33.473Z,1013.9
2017-10-03T06:42:35.072Z,1014.0
2017-10-03T06:43:36.672Z,1014.0
2017-10-03T06:44:38.253Z,1014.0
2017-10-03T06:45:39.824Z,1014.0
2017-10-03T06:46:41.362Z,1014.0
2017-10-03T06:47:42.929Z,1014.1
2017-10-03T06:48:44.537Z,1014.1
2017-10-03T06:49:46.105Z,1014.1
2017-10-03T06:50:47.752Z,1014.1
2017-10-03T06:51:49.331Z,1014.1
2017-10-03T06:52:50.933Z,1014.2
2017-10-03T06:53:52.501Z,1014.1
2017-10-03T06:54:54.076Z,1014.2
2017-10-03T06:55:55.645Z,1014.1
2017-10-03T06:56:57.205Z,1014.2
2017-10-03T06:57:58.833Z,1014.2
2017-10-03T06:59:00.419Z,1014.2
2017-10-03T07:00:01.977Z,1014.3
2017-10-03T07:01:03.574Z,1014.3
2017-10-03T07:02:05.172Z,1014.3
2017-10-03T07:03:06.723Z,1014.3
2017-10-03T07:04:08.285Z,1014.3
2017-10-03T07:05:09.845Z,1014.3
2017-10-03T07:06:11.374Z,1014.4
2017-10-03T07:07:13.013Z,1014.4
2017-10-03T07:08:14.615Z,1014.4
2017-10-03T07:09:16.176Z,1014.4
2017-10-03T07:10:17.760Z,1014.4
2017-10-03T07:11:19.352Z,1014.5
2017-10-03T07:12:20.930Z,1014.5
2017-10-03T07:13:22.453Z,1014.5
2017-10-03T07:14:24.016Z,1014.6
2017-10-03T07:15:25.540Z,1014.6
2017-10-03T07:16:27.105Z,1014.6
2017-10-03T07:17:28.675Z,1014.6
2017-10-03T07:18:30.265Z,1014.6
2017-10-03T07:19:31.816Z,1014.7
2017-10-03T07:20:33.413Z,1014.7
2017-10-03T07:21:35.062Z,1014.7
2017-10-03T07:22:36.624Z,1014.7
2017-10-03T07:23:38.231Z,1014.7
2017-10-03T07:24:39.842Z,1014.7
2017-10-03T07:25:41.458Z,1014.7
2017-10-03T07:26:43.030Z,1014.7
2017-10-03T07:27:44.612Z,1014.7
2017-10-03T07:28:46.147Z,1014.8
2017-10-03T07:29:47.734Z,1014.8
2017-10-03T07:30:49.304Z,1014.8
2017-10-03T07:31:50.898Z,1014.8
2017-10-03T07:32:52.465Z,1014.8
2017-10-03T07:33:54.042Z,1014.9
2017-10-03T07:34:55.612Z,1014.9
2017-10-03T07:35:57.195Z,1014.8
2017-10-03T07:36:58.781Z,1014.9
2017-10-03T07:38:00.357Z,1014.8
2017-10-03T07:39:01.942Z,1014.9
2017-10-03T07:40:03.556Z,1014.9
2017-10-03T07:41:05.142Z,1014.9
2017-10-03T07:42:06.760Z,1014.9
2017-10-03T07:43:08.382Z,1014.9
2017-10-03T07:44:09.940Z,1014.9
2017-10-03T07:45:11.490Z,1015.0
2017-10-03T07:46:13.060Z,1015.0
2017-10-03T07:47:14.627Z,1015.0
2017-10-03T07:48:16.203Z,1015.0
2017-10-03T07:49:17.807Z,1015.0
2017-10-03T07:50:19.426Z,1015.0
2017-10-03T07:51:21.016Z,1015.0
2017-10-03T07:52:22.652Z,1015.1
2017-10-03T07:53:24.234Z,1015.1
2017-10-03T07:54:25.807Z,1015.1
2017-10-03T07:55:27.408Z,1015.1
2017-10-03T07:56:28.916Z,1015.1
2017-10-03T07:57:30.500Z,1015.1
2017-10-03T07:58:32.041Z,1015.1
2017-10-03T07:59:33.567Z,1015.1
2017-10-03T08:00:35.100Z,1015.1
2017-10-03T08:01:36.677Z,1015.2
2017-10-03T08:02:38.255Z,1015.2
2017-10-03T08:03:39.783Z,1015.2
2017-10-03T08:04:41.316Z,1015.2
2017-10-03T08:05:42.816Z,1015.2
2017-10-03T08:06:44.321Z,1015.2
2017-10-03T08:07:45.821Z,1015.2
2017-10-03T08:08:47.275Z,1015.2
2017-10-03T08:09:48.756Z,1015.3
2017-10-03T08:10:50.314Z,1015.3
2017-10-03T08:11:51.921Z,1015.4
2017-10-03T08:12:53.430Z,1015.4
2017-10-03T08:13:54.939Z,1015.5
2017-10-03T08:14:56.433Z,1015.5
2017-10-03T08:15:57.953Z,1015.5
2017-10-03T08:16:59.508Z,1015.5
2017-10-03T08:18:01.079Z,1015.5
2017-10-03T08:19:02.585Z,1015.5
2017-10-03T08:20:04.142Z,1015.5
2017-10-03T08:21:05.678Z,1015.5
2017-10-03T08:22:07.254Z,1015.5
2017-10-03T08:23:08.800Z,1015.6
2017-10-03T08:24:10.331Z,1015.5
2017-10-03T08:25:11.842Z,1015.5
2017-10-03T08:26:13.337Z,1015.6
2017-10-03T08:27:14.875Z,1015.6
2017-10-03T08:28:16.382Z,1015.6
2017-10-03T08:29:17.955Z,1015.6
2017-10-03T08:30:19.480Z,1015.6
2017-10-03T08:31:20.978Z,1015.6
2017-10-03T08:32:22.517Z,1015.6
2017-10-03T08:33:24.024Z,1015.7
2017-10-03T08:34:25.593Z,1015.6
2017-10-03T08:35:27.100Z,1015.6
2017-10-03T08:36:28.636Z,1015.6
2017-10-03T08:37:30.147Z,1015.7
2017-10-03T08:38:31.682Z,1015.7
2017-10-03T08:39:33.202Z,1015.7
2017-10-03T08:40:34.759Z,1015.7
2017-10-03T08:41:36.284Z,1015.7
2017-10-03T08:42:37.843Z,1015.7
2017-10-03T08:43:39.376Z,1015.7
2017-10-03T08:44:40.931Z,1015.8
2017-10-03T08:45:42.444Z,1015.8
2017-10-03T08:46:43.967Z,1015.8
2017-10-03T08:47:45.544Z,1015.9
2017-10-03T08:48:47.102Z,1015.8
2017-10-03T08:49:48.621Z,1015.9
2017-10-03T08:50:50.201Z,1015.8
2017-10-03T08:51:51.759Z,1015.8
2017-10-03T08:52:53.244Z,1015.9
2017-10-03T08:53:54.746Z,1015.9
2017-10-03T08:54:56.283Z,1015.9
2017-10-03T08:55:57.784Z,1015.9
2017-10-03T08:56:59.318Z,1015.9
2017-10-03T08:58:00.812Z,1016.0
2017-10-03T08:59:02.364Z,1016.0
2017-10-03T09:00:10.147Z,1016.0
2017-10-03T09:01:11.392Z,1016.1
2017-10-03T09:02:12.916Z,1016.0
2017-10-03T09:03:14.435Z,1016.1
2017-10-03T09:04:15.975Z,1016.1
2017-10-03T09:05:17.457Z,1016.1
2017-10-03T09:06:18.973Z,1016.1
2017-10-03T09:07:20.509Z,1016.1
2017-10-03T09:08:22.029Z,1016.1
2017-10-03T09:09:23.590Z,1016.2
2017-10-03T09:10:25.107Z,1016.3
2017-10-03T09:11:26.606Z,1016.3
2017-10-03T09:12:28.092Z,1016.3
2017-10-03T09:13:29.591Z,1016.3
2017-10-03T09:14:31.084Z,1016.3
2017-10-03T09:15:32.615Z,1016.3
2017-10-03T09:16:34.102Z,1016.3
2017-10-03T09:17:35.621Z,1016.4
2017-10-03T09:18:37.139Z,1016.3
2017-10-03T09:19:38.661Z,1016.4
2017-10-03T09:20:40.221Z,1016.4
2017-10-03T09:21:41.735Z,1016.4
2017-10-03T09:22:43.232Z,1016.4
2017-10-03T09:23:44.744Z,1016.5
2017-10-03T09:24:46.285Z,1016.4
2017-10-03T09:25:47.812Z,1016.4
2017-10-03T09:26:49.345Z,1016.5
2017-10-03T09:27:50.816Z,1016.5
2017-10-03T09:28:52.309Z,1016.5
2017-10-03T09:29:53.831Z,1016.5
2017-10-03T09:30:55.325Z,1016.4
2017-10-03T09:31:56.849Z,1016.5
2017-10-03T09:32:58.393Z,1016.5
2017-10-03T09:33:59.899Z,1016.5
2017-10-03T09:35:01.407Z,1016.5
2017-10-03T09:36:02.889Z,1016.5
2017-10-03T09:37:04.490Z,1016.5
2017-10-03T09:38:06.116Z,1016.5
2017-10-03T09:39:07.648Z,1016.6
2017-10-03T09:40:09.227Z,1016.6
2017-10-03T09:41:10.677Z,1016.5
2017-10-03T09:42:12.208Z,1016.6
2017-10-03T09:43:13.752Z,1016.6
2017-10-03T09:44:15.262Z,1016.6
2017-10-03T09:45:16.808Z,1016.7
2017-10-03T09:46:18.302Z,1016.7
2017-10-03T09:47:19.837Z,1016.7
2017-10-03T09:48:21.320Z,1016.7
2017-10-03T09:49:22.829Z,1016.7
2017-10-03T09:50:24.314Z,1016.8
2017-10-03T09:51:25.846Z,1016.8
2017-10-03T09:52:27.334Z,1016.8
2017-10-03T09:53:28.851Z,1016.8
2017-10-03T09:54:30.389Z,1016.8
2017-10-03T09:55:31.838Z,1016.8
2017-10-03T09:56:33.278Z,1016.8
2017-10-03T09:57:34.750Z,1016.8
2017-10-03T09:58:36.252Z,1016.9
2017-10-03T09:59:37.764Z,1016.8
2017-10-03T10:00:39.261Z,1016.9
2017-10-03T10:01:40.760Z,1016.8
2017-10-03T10:02:42.293Z,1016.9
2017-10-03T10:03:43.823Z,1016.9
2017-10-03T10:04:45.369Z,1016.9
2017-10-03T10:05:46.872Z,1016.9
2017-10-03T10:06:48.421Z,1017.0
2017-10-03T10:07:49.960Z,1016.9
2017-10-03T10:08:51.443Z,1017.0
2017-10-03T10:09:52.960Z,1017.0
2017-10-03T10:10:54.500Z,1016.9
2017-10-03T10:11:56.104Z,1017.0
2017-10-03T10:12:57.595Z,1017.0
2017-10-03T10:13:59.070Z,1017.0
2017-10-03T10:15:00.586Z,1017.0
2017-10-03T10:16:02.094Z,1017.0
2017-10-03T10:17:03.597Z,1017.1
2017-10-03T10:18:05.126Z,1017.1
2017-10-03T10:19:06.669Z,1017.1
2017-10-03T10:20:08.174Z,1017.1
2017-10-03T10:21:09.732Z,1017.2
2017-10-03T10:22:11.229Z,1017.2
2017-10-03T10:23:12.756Z,1017.1
2017-10-03T10:24:14.268Z,1017.2
2017-10-03T10:25:15.755Z,1017.2
2017-10-03T10:26:17.289Z,1017.2
2017-10-03T10:27:18.783Z,1017.2
2017-10-03T10:28:20.278Z,1017.2
2017-10-03T10:29:21.842Z,1017.2
2017-10-03T10:30:23.373Z,1017.3
2017-10-03T10:31:24.843Z,1017.3
2017-10-03T10:32:26.284Z,1017.3
2017-10-03T10:33:27.725Z,1017.2
2017-10-03T10:34:29.211Z,1017.2
2017-10-03T10:35:30.640Z,1017.2
2017-10-03T10:36:32.095Z,1017.2
2017-10-03T10:37:33.544Z,1017.2
2017-10-03T10:38:34.979Z,1017.2
2017-10-03T10:39:36.498Z,1017.3
2017-10-03T10:40:37.993Z,1017.3
2017-10-03T10:41:39.486Z,1017.3
2017-10-03T10:42:41.057Z,1017.4
2017-10-03T10:43:42.589Z,1017.4
2017-10-03T10:44:44.107Z,1017.4
2017-10-03T10:45:45.609Z,1017.5
2017-10-03T10:46:47.128Z,1017.4
2017-10-03T10:47:48.628Z,1017.5
2017-10-03T10:48:50.159Z,1017.5
2017-10-03T10:49:51.669Z,1017.5
2017-10-03T10:50:53.168Z,1017.6
2017-10-03T10:51:54.661Z,1017.6
2017-10-03T10:52:56.179Z,1017.6
2017-10-03T10:53:57.702Z,1017.6
2017-10-03T10:54:59.199Z,1017.6
2017-10-03T10:56:00.738Z,1017.6
2017-10-03T10:57:02.251Z,1017.6
2017-10-03T10:58:03.769Z,1017.6
2017-10-03T10:59:05.269Z,1017.7
2017-10-03T11:00:06.799Z,1017.7
2017-10-03T11:01:08.296Z,1017.8
2017-10-03T11:02:09.762Z,1017.8
2017-10-03T11:03:11.282Z,1017.8
2017-10-03T11:04:12.787Z,1017.8
2017-10-03T11:05:14.277Z,1017.9
2017-10-03T11:06:15.790Z,1017.9
2017-10-03T11:07:17.303Z,1017.9
2017-10-03T11:08:18.817Z,1017.8
2017-10-03T11:09:20.346Z,1017.9
2017-10-03T11:10:21.796Z,1017.9
2017-10-03T11:11:23.320Z,1017.9
2017-10-03T11:12:24.864Z,1017.9
2017-10-03T11:13:26.332Z,1017.9
2017-10-03T11:14:27.796Z,1017.9
2017-10-03T11:15:29.301Z,1017.9
2017-10-03T11:16:30.770Z,1017.9
2017-10-03T11:17:32.290Z,1018.0
2017-10-03T11:18:33.784Z,1018.0
2017-10-03T11:19:35.294Z,1018.0
2017-10-03T11:20:36.807Z,1018.0
2017-10-03T11:21:38.310Z,1018.0
2017-10-03T11:22:39.803Z,1018.0
2017-10-03T11:23:41.293Z,1018.0
2017-10-03T11:24:42.811Z,1017.9
2017-10-03T11:25:44.312Z,1018.0
2017-10-03T11:26:45.786Z,1018.0
2017-10-03T11:27:47.316Z,1018.0
2017-10-03T11:28:48.844Z,1018.0
2017-10-03T11:29:50.338Z,1018.0
2017-10-03T11:30:51.870Z,1018.0
2017-10-03T11:31:53.401Z,1018.0
2017-10-03T11:32:54.868Z,1018.1
2017-10-03T11:33:56.372Z,1018.1
2017-10-03T11:34:57.807Z,1018.1
2017-10-03T11:35:59.273Z,1018.1
2017-10-03T11:37:00.730Z,1018.1
2017-10-03T11:38:02.165Z,1018.1
2017-10-03T11:39:03.671Z,1018.1
2017-10-03T11:40:05.169Z,1018.1
2017-10-03T11:41:06.701Z,1018.1
2017-10-03T11:42:08.198Z,1018.2
2017-10-03T11:43:09.723Z,1018.2
2017-10-03T11:44:11.227Z,1018.2
2017-10-03T11:45:12.727Z,1018.2
2017-10-03T11:46:14.226Z,1018.2
2017-10-03T11:47:15.683Z,1018.1
2017-10-03T11:48:17.148Z,1018.1
2017-10-03T11:49:18.638Z,1018.2
2017-10-03T11:50:20.138Z,1018.2
2017-10-03T11:51:21.630Z,1018.3
2017-10-03T11:52:23.128Z,1018.4
2017-10-03T11:53:24.617Z,1018.4
2017-10-03T11:54:26.108Z,1018.3
2017-10-03T11:55:27.619Z,1018.4
2017-10-03T11:56:29.081Z,1018.4
2017-10-03T11:57:30.581Z,1018.4
2017-10-03T11:58:32.036Z,1018.5
2017-10-03T11:59:33.544Z,1018.4
2017-10-03T12:00:35.086Z,1018.4
2017-10-03T12:01:36.513Z,1018.4
2017-10-03T12:02:38.025Z,1018.5
2017-10-03T12:03:39.534Z,1018.4
2017-10-03T12:04:40.989Z,1018.4
2017-10-03T12:05:42.488Z,1018.4
2017-10-03T12:06:43.989Z,1018.4
2017-10-03T12:07:45.463Z,1018.4
2017-10-03T12:08:46.932Z,1018.5
2017-10-03T12:09:48.432Z,1018.5
2017-10-03T12:10:49.925Z,1018.5
2017-10-03T12:11:51.405Z,1018.5
2017-10-03T12:12:52.900Z,1018.4
2017-10-03T12:13:54.391Z,1018.4
2017-10-03T12:14:55.861Z,1018.4
2017-10-03T12:15:57.377Z,1018.4
2017-10-03T12:16:58.894Z,1018.3
2017-10-03T12:18:00.386Z,1018.4
2017-10-03T12:19:01.825Z,1018.4
2017-10-03T12:20:03.269Z,1018.3
2017-10-03T12:21:04.709Z,1018.3
2017-10-03T12:22:06.147Z,1018.3
2017-10-03T12:23:07.587Z,1018.3
2017-10-03T12:24:09.032Z,1018.3
2017-10-03T12:25:10.474Z,1018.3
2017-10-03T12:26:11.915Z,1018.4
2017-10-03T12:27:13.350Z,1018.4
2017-10-03T12:28:14.809Z,1018.4
2017-10-03T12:29:16.249Z,1018.4
2017-10-03T12:30:17.752Z,1018.4
2017-10-03T12:31:19.207Z,1018.5
2017-10-03T12:32:20.755Z,1018.5
2017-10-03T12:33:22.234Z,1018.5
2017-10-03T12:34:23.721Z,1018.5
2017-10-03T12:35:25.250Z,1018.5
2017-10-03T12:36:26.807Z,1018.5
2017-10-03T12:37:28.290Z,1018.6
2017-10-03T12:38:29.791Z,1018.6
2017-10-03T12:39:31.294Z,1018.6
2017-10-03T12:40:32.769Z,1018.6
2017-10-03T12:41:34.261Z,1018.6
2017-10-03T12:42:35.756Z,1018.6
2017-10-03T12:43:37.258Z,1018.6
2017-10-03T12:44:38.734Z,1018.6
2017-10-03T12:45:40.223Z,1018.6
2017-10-03T12:46:41.699Z,1018.7
2017-10-03T12:47:43.167Z,1018.7